Time;durP1;ratioP1;P1;durP2;ratioP2;P2;SDS_P1;SDS_P2;PMS_P1;PMS_P2;Temp;Humidity;BMP_temperature;BMP_pressure;BME280_temperature;BME280_humidity;BME280_pressure;Samples;Min_cycle;Max_cycle;Signal;HPM_P1;HPM_P2
2023/09/29 00:02:13;;;;;;;25.30;18.20;;;;;;;13.17;83.34;99358.21;225617;1278;138455;-72
2023/09/29 00:07:16;;;;;;;23.10;18.90;;;;;;;13.13;83.51;99353.64;225615;1281;138751;-73
2023/09/29 00:12:18;;;;;;;23.60;18.30;;;;;;;13.08;83.62;99353.06;225655;1280;139751;-73
2023/09/29 00:17:20;;;;;;;24.60;18.10;;;;;;;13.03;83.58;99352.43;225684;1278;139061;-73
2023/09/29 00:22:22;;;;;;;22.30;17.00;;;;;;;12.98;83.78;99352.53;225683;1280;139713;-72
2023/09/29 00:27:24;;;;;;;23.90;17.10;;;;;;;12.95;83.85;99354.57;225760;1278;25022;-72
2023/09/29 00:32:26;;;;;;;22.50;17.50;;;;;;;12.92;83.95;99357.92;225416;1281;138513;-72
2023/09/29 00:37:29;;;;;;;20.90;16.40;;;;;;;12.89;83.95;99359.55;225651;1279;139306;-72
2023/09/29 00:42:31;;;;;;;21.20;16.10;;;;;;;12.86;83.83;99362.61;225476;1276;138912;-73
2023/09/29 00:47:36;;;;;;;21.30;17.20;;;;;;;12.82;83.88;99361.20;225657;1280;139177;-72
2023/09/29 00:52:40;;;;;;;19.60;16.00;;;;;;;12.76;83.92;99361.56;225690;1281;138741;-72
2023/09/29 00:57:47;;;;;;;19.80;16.90;;;;;;;12.71;83.89;99358.95;225732;1281;22543;-72
2023/09/29 01:02:50;;;;;;;19.40;15.60;;;;;;;12.65;84.09;99359.08;225700;1276;22570;-72
2023/09/29 01:07:52;;;;;;;18.90;16.20;;;;;;;12.61;83.98;99358.09;225673;1278;138779;-72
2023/09/29 01:12:54;;;;;;;19.30;16.30;;;;;;;12.56;84.10;99359.64;225613;1275;138964;-71
2023/09/29 01:17:56;;;;;;;18.30;15.50;;;;;;;12.54;84.42;99358.41;225654;1280;138716;-72
2023/09/29 01:23:01;;;;;;;19.90;16.20;;;;;;;12.51;84.44;99358.38;225696;1276;138717;-71
2023/09/29 01:28:05;;;;;;;19.20;16.40;;;;;;;12.48;84.49;99359.15;225656;1281;139147;-73
2023/09/29 01:33:08;;;;;;;21.80;16.10;;;;;;;12.44;84.57;99355.17;225754;1281;24218;-71
2023/09/29 01:38:10;;;;;;;20.20;14.90;;;;;;;12.43;84.76;99352.27;225646;1281;138515;-72
2023/09/29 01:43:12;;;;;;;18.40;15.40;;;;;;;12.45;84.81;99350.52;225447;1278;173717;-71
2023/09/29 01:48:13;;;;;;;17.90;14.60;;;;;;;12.45;84.68;99351.69;225585;1281;139751;-72
2023/09/29 01:53:16;;;;;;;20.60;14.80;;;;;;;12.44;84.77;99352.88;225463;1277;139131;-71
2023/09/29 01:58:20;;;;;;;18.90;14.40;;;;;;;12.41;84.67;99354.52;225627;1275;138841;-71
2023/09/29 02:03:22;;;;;;;21.30;15.10;;;;;;;12.38;84.73;99354.15;225575;1281;22544;-71
2023/09/29 02:08:25;;;;;;;18.00;14.40;;;;;;;12.34;84.81;99352.30;225568;1268;139068;-72
2023/09/29 02:13:27;;;;;;;18.00;15.20;;;;;;;12.30;84.84;99353.89;225620;1279;138647;-72
2023/09/29 02:18:29;;;;;;;18.90;16.20;;;;;;;12.28;84.96;99355.70;225531;1281;138986;-72
2023/09/29 02:23:33;;;;;;;18.80;16.10;;;;;;;12.29;85.09;99355.43;225605;1281;138841;-72
2023/09/29 02:28:36;;;;;;;17.40;15.20;;;;;;;12.30;85.22;99356.87;225500;1280;140286;-72
2023/09/29 02:33:40;;;;;;;16.60;14.30;;;;;;;12.32;85.31;99352.04;225769;1278;22559;-72
2023/09/29 02:38:42;;;;;;;18.80;14.80;;;;;;;12.31;85.33;99348.23;225733;1278;138892;-72
2023/09/29 02:43:44;;;;;;;18.30;15.10;;;;;;;12.30;85.14;99341.27;225688;1278;138714;-71
2023/09/29 02:48:46;;;;;;;21.00;14.80;;;;;;;12.29;85.19;99339.30;225676;1281;138891;-71
2023/09/29 02:53:50;;;;;;;16.70;13.50;;;;;;;12.27;85.31;99333.42;225633;1278;138846;-72
2023/09/29 02:58:54;;;;;;;17.40;14.30;;;;;;;12.23;85.28;99326.58;225571;1275;138934;-72
2023/09/29 03:03:58;;;;;;;17.30;14.00;;;;;;;12.19;85.13;99323.09;225623;1280;138859;-73
2023/09/29 03:09:01;;;;;;;17.10;14.30;;;;;;;12.12;85.08;99320.20;225820;1281;22694;-71
2023/09/29 03:14:04;;;;;;;18.60;14.80;;;;;;;12.07;85.17;99315.35;225720;1278;139311;-72
2023/09/29 03:19:08;;;;;;;20.90;15.00;;;;;;;12.01;85.22;99314.59;225676;1279;138949;-72
2023/09/29 03:24:10;;;;;;;17.40;15.20;;;;;;;11.96;85.30;99307.52;225712;1275;138769;-73
2023/09/29 03:29:12;;;;;;;16.50;14.70;;;;;;;11.91;85.47;99305.73;225686;1278;140244;-72
2023/09/29 03:34:14;;;;;;;18.00;14.90;;;;;;;11.87;85.39;99305.00;225678;1279;138864;-72
2023/09/29 03:39:18;;;;;;;18.20;15.20;;;;;;;11.84;85.48;99306.80;225673;1280;22543;-71
2023/09/29 03:44:21;;;;;;;19.20;15.30;;;;;;;11.80;85.53;99306.55;225509;1277;138743;-71
2023/09/29 03:49:23;;;;;;;21.90;15.80;;;;;;;11.76;85.67;99302.96;225556;1281;138722;-71
2023/09/29 03:54:25;;;;;;;19.20;15.30;;;;;;;11.73;85.69;99306.23;225613;1279;138849;-71
2023/09/29 03:59:27;;;;;;;18.30;15.40;;;;;;;11.68;85.71;99302.14;225653;1276;139059;-72
2023/09/29 04:04:30;;;;;;;18.20;14.60;;;;;;;11.65;85.76;99298.92;225673;1279;138790;-72
2023/09/29 04:09:33;;;;;;;19.80;15.00;;;;;;;11.62;85.66;99296.55;225773;1280;22674;-72
2023/09/29 04:14:35;;;;;;;20.20;15.10;;;;;;;11.58;85.66;99294.50;225620;1278;138741;-72
2023/09/29 04:19:38;;;;;;;18.70;15.10;;;;;;;11.55;85.79;99294.42;225543;1278;140196;-71
2023/09/29 04:24:40;;;;;;;18.70;15.10;;;;;;;11.51;85.85;99299.54;225674;1279;138920;-72
2023/09/29 04:29:42;;;;;;;18.50;14.30;;;;;;;11.48;85.88;99303.27;225637;1279;139163;-72
2023/09/29 04:34:45;;;;;;;18.20;14.90;;;;;;;11.44;85.77;99300.03;225633;1281;138790;-72
2023/09/29 04:39:47;;;;;;;17.80;15.20;;;;;;;11.41;85.98;99300.23;225607;1275;138929;-71
2023/09/29 04:44:49;;;;;;;20.40;15.70;;;;;;;11.38;85.94;99305.77;225612;1281;22547;-72
2023/09/29 04:49:51;;;;;;;21.90;16.20;;;;;;;11.35;86.08;99306.45;225546;1278;140139;-72
2023/09/29 04:54:53;;;;;;;20.40;15.50;;;;;;;11.34;86.07;99307.29;225550;1278;139937;-72
2023/09/29 04:59:55;;;;;;;19.80;15.40;;;;;;;11.34;86.23;99309.89;225646;1278;138820;-72
2023/09/29 05:04:57;;;;;;;21.80;16.40;;;;;;;11.36;86.26;99312.69;225601;1273;138753;-72
2023/09/29 05:09:59;;;;;;;18.50;15.80;;;;;;;11.39;86.47;99314.42;225667;1275;139143;-72
2023/09/29 05:15:01;;;;;;;21.80;16.50;;;;;;;11.43;86.71;99312.15;225810;1279;25936;-70
2023/09/29 05:20:05;;;;;;;26.90;21.20;;;;;;;11.50;86.75;99313.18;225710;1273;138879;-72
2023/09/29 05:25:08;;;;;;;32.70;29.10;;;;;;;11.57;86.91;99313.35;225695;1275;138903;-72
2023/09/29 05:30:12;;;;;;;45.70;40.10;;;;;;;11.67;86.91;99313.45;225630;1257;140268;-71
2023/09/29 05:35:14;;;;;;;55.00;44.20;;;;;;;11.78;86.89;99317.38;225622;1275;138896;-71
2023/09/29 05:40:16;;;;;;;54.90;45.10;;;;;;;11.90;86.90;99318.07;225322;1259;138855;-72
2023/09/29 05:45:20;;;;;;;58.40;46.20;;;;;;;12.04;87.05;99317.52;225270;1257;22566;-72
2023/09/29 05:50:21;;;;;;;54.20;44.60;;;;;;;12.18;86.92;99316.31;225334;1266;139018;-72
2023/09/29 05:55:24;;;;;;;48.00;38.50;;;;;;;12.33;86.92;99320.95;225100;1275;138849;-73
2023/09/29 06:00:26;;;;;;;34.30;26.20;;;;;;;12.49;86.95;99326.96;225161;1275;139318;-73
2023/09/29 06:05:29;;;;;;;29.80;24.10;;;;;;;12.67;86.75;99331.81;225007;1266;139638;-72
2023/09/29 06:10:31;;;;;;;26.10;21.50;;;;;;;12.86;86.88;99334.42;225209;1259;139056;-72
2023/09/29 06:15:33;;;;;;;24.40;19.60;;;;;;;13.06;86.60;99329.83;225174;1270;22565;-72
2023/09/29 06:20:35;;;;;;;24.40;17.50;;;;;;;13.27;86.60;99333.31;224880;1271;138476;-72
2023/09/29 06:25:37;;;;;;;19.50;16.50;;;;;;;13.49;86.60;99338.42;225043;1261;138731;-73
2023/09/29 06:30:39;;;;;;;19.10;15.30;;;;;;;13.73;86.39;99341.24;225046;1272;138754;-73
2023/09/29 06:35:42;;;;;;;14.70;13.10;;;;;;;13.96;86.10;99340.41;225064;1274;139228;-73
2023/09/29 06:40:44;;;;;;;17.40;12.30;;;;;;;14.20;86.06;99342.48;224918;1259;138847;-74
2023/09/29 06:45:46;;;;;;;16.40;11.90;;;;;;;14.44;85.94;99344.99;224837;1262;138827;-74
2023/09/29 06:50:51;;;;;;;14.80;10.70;;;;;;;14.72;85.56;99347.76;224906;1259;22569;-74
2023/09/29 06:55:54;;;;;;;14.20;10.40;;;;;;;15.00;85.12;99353.55;225228;1257;138665;-74
2023/09/29 07:00:57;;;;;;;13.30;10.20;;;;;;;15.30;84.60;99357.55;225434;1262;138930;-74
2023/09/29 07:06:03;;;;;;;12.20;9.40;;;;;;;15.60;84.08;99363.35;225293;1262;138901;-74
2023/09/29 07:11:05;;;;;;;12.50;9.50;;;;;;;15.87;83.72;99361.04;225187;1258;138638;-74
2023/09/29 07:16:07;;;;;;;11.80;9.00;;;;;;;16.13;82.80;99361.27;225537;1278;139587;-74
2023/09/29 07:21:09;;;;;;;12.20;9.30;;;;;;;16.36;82.32;99360.08;225687;1267;22630;-75
2023/09/29 07:26:12;;;;;;;13.10;9.80;;;;;;;16.57;81.93;99360.52;225341;1266;138386;-75
2023/09/29 07:31:14;;;;;;;12.60;8.80;;;;;;;16.78;81.46;99364.15;225342;1278;138728;-75
2023/09/29 07:36:16;;;;;;;12.10;9.10;;;;;;;16.99;81.24;99362.35;225087;1281;138867;-74
2023/09/29 07:41:18;;;;;;;10.40;8.80;;;;;;;17.20;80.94;99362.33;225287;1281;138583;-74
2023/09/29 07:46:20;;;;;;;12.90;9.70;;;;;;;17.43;80.57;99357.27;225447;1275;139452;-75
2023/09/29 07:51:24;;;;;;;10.10;8.80;;;;;;;17.67;80.06;99358.84;225533;1260;22583;-74
2023/09/29 07:56:26;;;;;;;12.90;8.60;;;;;;;17.88;79.24;99360.55;225441;1278;138225;-75
2023/09/29 08:01:29;;;;;;;12.00;9.00;;;;;;;18.12;79.11;99360.17;225375;1279;138541;-75
2023/09/29 08:06:31;;;;;;;10.00;8.50;;;;;;;18.36;78.77;99355.99;225381;1281;138636;-75
2023/09/29 08:11:33;;;;;;;12.20;8.70;;;;;;;18.60;78.37;99354.35;225412;1281;138721;-75
2023/09/29 08:16:36;;;;;;;11.20;8.20;;;;;;;18.87;77.55;99354.09;225441;1278;138584;-75
2023/09/29 08:21:39;;;;;;;9.40;7.30;;;;;;;19.14;76.78;99361.15;225500;1279;22540;-76
2023/09/29 08:26:41;;;;;;;11.40;8.40;;;;;;;19.39;76.14;99362.20;225392;1279;138379;-77
2023/09/29 08:31:43;;;;;;;12.30;8.10;;;;;;;19.62;75.77;99361.63;225303;1273;138753;-76
2023/09/29 08:36:46;;;;;;;8.70;7.40;;;;;;;19.84;75.15;99361.96;225404;1262;138798;-75
2023/09/29 08:41:56;;;;;;;13.40;8.00;;;;;;;20.08;74.57;99362.52;225313;1266;138537;-76
2023/09/29 08:47:01;;;;;;;9.70;7.80;;;;;;;20.32;74.19;99359.11;225271;1281;139936;-75
2023/09/29 08:52:04;;;;;;;9.30;7.40;;;;;;;20.55;73.78;99358.94;225107;1274;138514;-77
2023/09/29 08:57:07;;;;;;;9.70;7.00;;;;;;;20.76;73.41;99362.20;225142;1278;23115;-75
2023/09/29 09:02:09;;;;;;;7.80;7.00;;;;;;;20.96;72.79;99358.87;225110;1278;138706;-75
2023/09/29 09:07:12;;;;;;;14.50;7.40;;;;;;;21.18;72.33;99359.70;225230;1281;138209;-75
2023/09/29 09:12:17;;;;;;;10.10;7.30;;;;;;;21.37;71.57;99360.86;225388;1281;138233;-75
2023/09/29 09:17:19;;;;;;;8.10;6.80;;;;;;;21.57;71.11;99364.29;225472;1281;137873;-75
2023/09/29 09:22:24;;;;;;;9.30;7.30;;;;;;;21.75;70.75;99360.43;225334;1278;138258;-76
2023/09/29 09:27:41;;;;;;;7.60;6.60;;;;;;;21.91;69.68;99360.17;225462;1271;22537;-76
2023/09/29 09:32:43;;;;;;;10.30;7.20;;;;;;;22.10;69.31;99358.11;225469;1270;22537;-76
2023/09/29 09:37:51;;;;;;;7.90;6.50;;;;;;;22.27;68.65;99358.33;225204;1262;137789;-76
2023/09/29 09:42:54;;;;;;;8.50;6.90;;;;;;;22.43;68.17;99357.73;225219;1271;138056;-77
2023/09/29 09:47:59;;;;;;;10.50;6.60;;;;;;;22.61;67.63;99351.05;225336;1280;139033;-76
2023/09/29 09:53:07;;;;;;;7.60;6.40;;;;;;;22.78;65.79;99353.04;225267;1278;138301;-76
2023/09/29 09:58:13;;;;;;;11.10;6.80;;;;;;;22.95;65.10;99349.17;225262;1278;138268;-77
2023/09/29 10:03:16;;;;;;;13.10;7.40;;;;;;;23.11;64.68;99348.26;225202;1278;22610;-76
2023/09/29 10:08:30;;;;;;;8.70;7.00;;;;;;;23.25;63.37;99342.81;225471;1280;137753;-76
2023/09/29 10:13:38;;;;;;;7.10;6.40;;;;;;;23.41;63.06;99345.23;225330;1270;137588;-76
2023/09/29 10:18:40;;;;;;;10.20;7.20;;;;;;;23.54;61.46;99343.69;225377;1278;138537;-75
2023/09/29 10:23:50;;;;;;;9.90;7.70;;;;;;;23.64;61.63;99339.92;225140;1270;138044;-76
2023/09/29 10:29:00;;;;;;;8.30;6.70;;;;;;;23.76;60.88;99336.55;225224;1278;137796;-75
2023/09/29 10:34:03;;;;;;;8.30;7.00;;;;;;;23.88;60.11;99334.64;225356;1271;138227;-75
2023/09/29 10:39:05;;;;;;;6.90;6.20;;;;;;;24.02;60.00;99333.63;225125;1281;23479;-77
2023/09/29 10:44:07;;;;;;;10.80;6.50;;;;;;;24.14;59.67;99333.27;225008;1275;137515;-78
2023/09/29 10:49:09;;;;;;;8.60;6.50;;;;;;;24.20;57.77;99323.61;225208;1279;138004;-76
2023/09/29 10:54:12;;;;;;;9.40;6.40;;;;;;;24.29;58.09;99318.49;225251;1281;139040;-75
2023/09/29 10:59:14;;;;;;;8.70;6.50;;;;;;;24.41;56.89;99312.22;225187;1260;138468;-76
2023/09/29 11:04:16;;;;;;;8.50;6.60;;;;;;;24.50;56.68;99308.67;225366;1281;138024;-76
2023/09/29 11:09:28;;;;;;;9.00;6.40;;;;;;;24.52;54.99;99302.52;225524;1278;22552;-75
2023/09/29 11:14:38;;;;;;;12.10;6.20;;;;;;;24.53;54.81;99297.77;225480;1281;137500;-75
2023/09/29 11:19:54;;;;;;;7.20;6.50;;;;;;;24.56;53.88;99291.95;225333;1272;137745;-76
2023/09/29 11:24:56;;;;;;;7.50;6.00;;;;;;;24.57;53.98;99285.73;225315;1276;138090;-75
2023/09/29 11:30:01;;;;;;;6.50;5.90;;;;;;;24.65;53.83;99281.86;225275;1271;137890;-75
2023/09/29 11:35:03;;;;;;;10.20;6.60;;;;;;;24.65;52.60;99276.06;225181;1281;137795;-74
2023/09/29 11:40:11;;;;;;;8.60;6.40;;;;;;;24.65;53.54;99271.91;225243;1278;138569;-74
2023/09/29 11:45:13;;;;;;;7.10;6.40;;;;;;;24.71;53.37;99265.34;225309;1271;25265;-74
2023/09/29 11:50:15;;;;;;;7.50;6.30;;;;;;;24.76;52.93;99263.08;225152;1262;137589;-75
2023/09/29 11:55:17;;;;;;;7.10;6.30;;;;;;;24.82;53.23;99254.48;225172;1272;137667;-74
2023/09/29 12:00:19;;;;;;;6.90;5.90;;;;;;;24.85;53.07;99246.27;225380;1259;137980;-75
2023/09/29 12:05:21;;;;;;;9.90;6.10;;;;;;;24.91;53.11;99241.95;225077;1266;137965;-75
2023/09/29 12:10:23;;;;;;;11.10;7.10;;;;;;;24.95;52.33;99230.60;225068;1274;138090;-74
2023/09/29 12:15:25;;;;;;;12.50;6.20;;;;;;;25.01;51.96;99223.48;225336;1258;22541;-75
2023/09/29 12:20:28;;;;;;;9.50;6.40;;;;;;;25.09;52.45;99227.90;225187;1275;137808;-75
2023/09/29 12:25:31;;;;;;;10.30;6.00;;;;;;;25.20;52.12;99218.44;225052;1275;137778;-75
2023/09/29 12:30:33;;;;;;;7.30;5.50;;;;;;;25.24;52.08;99211.59;224968;1256;138145;-73
2023/09/29 12:35:35;;;;;;;6.90;5.90;;;;;;;25.24;51.73;99205.10;225362;1278;137965;-74
2023/09/29 12:40:37;;;;;;;9.30;6.10;;;;;;;25.28;52.24;99200.77;225580;1278;137938;-73
2023/09/29 12:45:39;;;;;;;10.30;6.40;;;;;;;25.36;52.31;99195.77;225571;1273;24540;-75
2023/09/29 12:50:41;;;;;;;7.20;6.20;;;;;;;25.43;51.87;99190.13;225505;1275;138517;-74
2023/09/29 12:55:43;;;;;;;12.30;6.80;;;;;;;25.46;51.83;99186.44;225446;1276;137746;-74
2023/09/29 13:00:45;;;;;;;9.40;6.60;;;;;;;25.45;52.10;99184.77;225361;1277;137833;-74
2023/09/29 13:05:47;;;;;;;7.00;6.20;;;;;;;25.46;51.45;99180.17;225404;1276;137809;-75
2023/09/29 13:10:50;;;;;;;9.30;6.30;;;;;;;25.47;51.95;99170.86;225269;1275;138534;-75
2023/09/29 13:15:52;;;;;;;8.80;7.40;;;;;;;25.47;51.83;99169.94;225177;1278;137814;-75
2023/09/29 13:20:55;;;;;;;8.40;6.40;;;;;;;25.48;51.52;99163.29;225148;1270;22560;-74
2023/09/29 13:25:57;;;;;;;7.40;6.40;;;;;;;25.41;50.60;99152.63;225179;1275;138624;-75
2023/09/29 13:31:01;;;;;;;7.90;6.20;;;;;;;25.37;51.06;99152.12;225237;1277;139221;-75
2023/09/29 13:36:03;;;;;;;11.50;7.80;;;;;;;25.34;51.01;99148.17;225143;1275;137931;-73
2023/09/29 13:41:06;;;;;;;7.30;5.70;;;;;;;25.32;50.57;99148.61;224909;1278;193043;-74
2023/09/29 13:46:08;;;;;;;6.70;6.00;;;;;;;25.36;50.34;99142.11;225199;1274;137998;-73
2023/09/29 13:51:10;;;;;;;7.40;6.20;;;;;;;25.34;49.97;99139.63;225338;1260;22529;-74
2023/09/29 13:56:13;;;;;;;6.30;5.70;;;;;;;25.31;49.65;99140.66;225281;1278;137905;-73
2023/09/29 14:01:21;;;;;;;6.90;6.10;;;;;;;25.25;49.98;99131.14;225095;1272;138402;-73
2023/09/29 14:06:23;;;;;;;9.50;6.30;;;;;;;25.25;49.28;99126.98;224924;1281;137976;-72
2023/09/29 14:11:26;;;;;;;11.30;6.10;;;;;;;25.29;49.79;99126.22;224998;1281;137761;-72
2023/09/29 14:16:28;;;;;;;6.80;5.70;;;;;;;25.27;49.40;99123.45;225206;1278;138082;-72
2023/09/29 14:21:30;;;;;;;10.40;6.00;;;;;;;25.19;49.25;99121.27;225590;1278;22555;-73
2023/09/29 14:26:33;;;;;;;6.40;5.70;;;;;;;25.13;49.30;99116.79;225432;1278;138937;-73
2023/09/29 14:31:35;;;;;;;7.00;6.00;;;;;;;25.02;49.16;99117.05;225492;1259;138724;-72
2023/09/29 14:36:37;;;;;;;6.50;5.80;;;;;;;24.91;50.15;99115.47;225522;1281;138688;-72
2023/09/29 14:41:39;;;;;;;8.80;5.80;;;;;;;24.82;50.51;99109.80;225523;1281;138754;-73
2023/09/29 14:46:41;;;;;;;9.70;8.50;;;;;;;24.68;50.43;99115.55;225509;1279;137924;-73
2023/09/29 14:51:43;;;;;;;7.30;5.90;;;;;;;24.52;50.07;99120.04;225600;1280;138558;-72
2023/09/29 14:56:45;;;;;;;9.00;6.00;;;;;;;24.38;50.34;99121.23;225704;1281;22571;-73
2023/09/29 15:01:47;;;;;;;7.10;5.70;;;;;;;24.23;50.48;99124.02;225593;1278;137909;-72
2023/09/29 15:06:49;;;;;;;8.20;5.90;;;;;;;24.09;50.89;99123.48;225563;1278;138155;-72
2023/09/29 15:11:51;;;;;;;8.50;5.90;;;;;;;23.96;51.49;99116.08;225431;1281;137831;-74
2023/09/29 15:16:53;;;;;;;8.00;6.10;;;;;;;23.79;51.82;99112.95;225430;1279;138684;-73
2023/09/29 15:21:56;;;;;;;7.80;6.80;;;;;;;23.64;52.17;99113.16;225582;1279;137883;-73
2023/09/29 15:26:58;;;;;;;7.60;6.40;;;;;;;23.48;52.49;99112.61;225688;1281;22743;-73
2023/09/29 15:32:15;;;;;;;7.90;5.60;;;;;;;23.32;52.75;99112.36;225403;1280;137522;-73
2023/09/29 15:37:21;;;;;;;7.60;6.00;;;;;;;23.16;53.00;99114.02;225539;1281;137975;-73
2023/09/29 15:42:23;;;;;;;6.30;5.20;;;;;;;23.00;53.35;99118.28;225555;1281;137964;-73
2023/09/29 15:47:26;;;;;;;8.30;6.20;;;;;;;22.82;53.72;99125.27;225619;1281;137839;-74
2023/09/29 15:52:28;;;;;;;8.70;6.00;;;;;;;22.61;54.12;99126.77;225614;1281;138869;-73
2023/09/29 15:57:30;;;;;;;6.90;6.20;;;;;;;22.39;54.47;99130.79;225724;1281;25230;-73
2023/09/29 16:02:32;;;;;;;7.00;6.00;;;;;;;22.17;54.90;99140.71;225447;1281;137798;-74
2023/09/29 16:07:34;;;;;;;8.80;6.20;;;;;;;21.95;55.33;99137.98;225568;1279;138368;-72
2023/09/29 16:12:36;;;;;;;8.90;5.50;;;;;;;21.75;55.58;99138.23;225622;1278;137925;-72
2023/09/29 16:17:38;;;;;;;7.90;5.60;;;;;;;21.55;55.83;99142.78;225592;1281;138067;-73
2023/09/29 16:22:40;;;;;;;10.50;5.50;;;;;;;21.35;55.98;99146.35;225554;1281;137869;-73
2023/09/29 16:27:42;;;;;;;5.80;5.20;;;;;;;21.17;56.40;99142.91;225691;1279;22538;-73
2023/09/29 16:32:44;;;;;;;10.40;5.60;;;;;;;20.95;56.68;99145.28;225701;1279;22557;-73
2023/09/29 16:37:46;;;;;;;6.20;5.10;;;;;;;20.72;57.01;99148.20;225647;1276;138850;-73
2023/09/29 16:42:48;;;;;;;8.10;4.70;;;;;;;20.48;57.36;99146.84;225599;1281;137990;-73
2023/09/29 16:47:50;;;;;;;8.10;5.70;;;;;;;20.23;57.75;99147.66;225517;1281;138752;-73
2023/09/29 16:52:52;;;;;;;7.30;5.70;;;;;;;19.97;58.18;99151.42;225652;1281;138830;-72
2023/09/29 16:57:54;;;;;;;10.20;6.00;;;;;;;19.73;58.59;99147.42;225583;1281;137790;-73
2023/09/29 17:02:56;;;;;;;14.40;6.50;;;;;;;19.51;59.04;99149.27;225738;1281;22530;-73
2023/09/29 17:08:00;;;;;;;11.60;7.90;;;;;;;19.32;59.54;99149.40;225680;1281;138268;-73
2023/09/29 17:13:03;;;;;;;10.40;6.80;;;;;;;19.16;59.97;99145.17;225651;1279;138245;-73
2023/09/29 17:18:05;;;;;;;11.70;7.10;;;;;;;19.02;60.23;99141.96;225705;1281;138797;-73
2023/09/29 17:23:08;;;;;;;16.30;10.70;;;;;;;18.84;60.55;99143.70;225717;1281;138700;-74
2023/09/29 17:28:13;;;;;;;12.10;7.80;;;;;;;18.66;61.06;99145.75;225669;1279;138998;-73
2023/09/29 17:33:16;;;;;;;9.50;7.30;;;;;;;18.52;61.51;99143.11;225750;1281;22844;-72
2023/09/29 17:38:18;;;;;;;9.30;6.70;;;;;;;18.40;61.68;99148.33;225642;1277;137587;-73
2023/09/29 17:43:20;;;;;;;13.40;8.10;;;;;;;18.33;62.10;99150.46;225664;1281;137603;-72
2023/09/29 17:48:22;;;;;;;10.10;8.10;;;;;;;18.34;62.25;99146.68;225689;1281;138373;-72
2023/09/29 17:53:44;;;;;;;11.20;8.20;;;;;;;18.29;62.41;99145.23;225618;1276;138659;-73
2023/09/29 17:58:47;;;;;;;12.40;8.20;;;;;;;18.16;62.56;99147.56;225573;1280;138090;-72
2023/09/29 18:03:49;;;;;;;11.20;8.50;;;;;;;18.00;62.82;99149.11;225671;1281;160324;-73
2023/09/29 18:08:51;;;;;;;13.30;8.10;;;;;;;17.84;63.21;99149.48;225780;1281;26057;-74
2023/09/29 18:13:56;;;;;;;11.00;8.20;;;;;;;17.71;63.44;99148.26;225644;1258;138084;-74
2023/09/29 18:19:00;;;;;;;13.40;8.30;;;;;;;17.60;63.83;99147.33;225748;1273;138673;-74
2023/09/29 18:24:05;;;;;;;9.70;8.10;;;;;;;17.51;63.88;99144.80;225563;1281;138716;-73
2023/09/29 18:29:08;;;;;;;10.90;8.40;;;;;;;17.45;64.28;99147.88;225667;1279;138656;-73
2023/09/29 18:34:11;;;;;;;13.50;8.80;;;;;;;17.40;64.55;99148.45;225718;1274;138851;-73
2023/09/29 18:39:14;;;;;;;11.10;8.30;;;;;;;17.37;64.76;99148.16;225837;1281;22541;-73
2023/09/29 18:44:16;;;;;;;10.90;8.20;;;;;;;17.31;64.84;99143.02;225645;1279;138267;-74
2023/09/29 18:49:18;;;;;;;11.40;8.70;;;;;;;17.25;65.18;99144.23;225651;1279;138441;-74
2023/09/29 18:54:23;;;;;;;16.50;12.60;;;;;;;17.21;65.32;99143.63;225657;1278;140485;-74
2023/09/29 18:59:27;;;;;;;16.30;12.00;;;;;;;17.15;65.33;99140.36;225633;1274;140265;-73
2023/09/29 19:04:32;;;;;;;11.80;8.40;;;;;;;17.08;65.77;99140.64;225664;1281;138946;-74
2023/09/29 19:09:37;;;;;;;13.30;8.50;;;;;;;17.02;65.94;99140.25;225751;1276;22549;-73
2023/09/29 19:14:40;;;;;;;10.90;7.90;;;;;;;16.96;65.96;99134.95;225674;1280;138089;-73
2023/09/29 19:19:42;;;;;;;9.50;7.80;;;;;;;16.88;65.86;99130.09;225684;1279;138608;-73
2023/09/29 19:24:45;;;;;;;11.20;7.60;;;;;;;16.80;66.03;99127.92;225602;1279;138459;-71
2023/09/29 19:29:48;;;;;;;10.00;7.90;;;;;;;16.73;66.03;99123.37;225684;1281;138550;-72
2023/09/29 19:34:51;;;;;;;11.70;7.90;;;;;;;16.66;66.28;99127.84;225705;1280;139185;-73
2023/09/29 19:39:53;;;;;;;11.00;8.20;;;;;;;16.59;66.48;99129.57;225691;1279;139751;-74
2023/09/29 19:44:56;;;;;;;12.70;8.60;;;;;;;16.52;66.58;99134.20;225769;1280;25273;-73
2023/09/29 19:49:59;;;;;;;17.20;8.80;;;;;;;16.46;66.79;99131.23;225679;1273;138303;-72
2023/09/29 19:55:02;;;;;;;16.10;9.00;;;;;;;16.40;66.93;99129.39;225675;1278;138696;-74
2023/09/29 20:00:05;;;;;;;15.70;8.60;;;;;;;16.36;67.18;99129.45;225706;1280;138911;-73
2023/09/29 20:05:16;;;;;;;11.80;9.10;;;;;;;16.31;67.30;99132.66;225620;1281;139457;-73
2023/09/29 20:10:18;;;;;;;14.10;9.40;;;;;;;16.26;67.47;99131.62;225688;1280;138562;-74
2023/09/29 20:15:20;;;;;;;13.60;9.70;;;;;;;16.21;68.00;99131.56;225755;1280;22667;-73
2023/09/29 20:20:22;;;;;;;11.60;9.50;;;;;;;16.17;68.02;99129.39;225539;1281;139562;-74
2023/09/29 20:25:24;;;;;;;14.80;9.40;;;;;;;16.15;68.22;99131.05;225692;1277;138039;-74
2023/09/29 20:30:27;;;;;;;14.40;9.50;;;;;;;16.09;68.26;99127.76;225675;1280;138654;-73
2023/09/29 20:35:30;;;;;;;14.40;10.30;;;;;;;16.05;68.49;99126.58;225695;1281;139021;-73
2023/09/29 20:40:32;;;;;;;15.40;10.80;;;;;;;15.99;68.84;99127.83;225625;1281;139732;-74
2023/09/29 20:45:34;;;;;;;13.50;10.90;;;;;;;15.93;68.92;99127.81;225748;1279;22552;-73
2023/09/29 20:50:37;;;;;;;14.20;11.10;;;;;;;15.91;69.19;99129.74;225514;1276;138248;-73
2023/09/29 20:55:39;;;;;;;14.20;11.20;;;;;;;15.89;69.71;99134.18;225662;1278;139525;-73
2023/09/29 21:00:41;;;;;;;17.40;12.40;;;;;;;15.86;70.02;99135.44;225467;1277;138930;-73
2023/09/29 21:05:43;;;;;;;16.60;12.40;;;;;;;15.81;70.03;99136.81;225665;1279;139433;-74
2023/09/29 21:11:00;;;;;;;17.30;12.30;;;;;;;15.75;70.32;99132.58;225550;1281;138419;-73
2023/09/29 21:16:06;;;;;;;15.40;11.90;;;;;;;15.68;70.43;99133.64;225727;1279;139912;-73
2023/09/29 21:21:08;;;;;;;16.60;12.80;;;;;;;15.60;70.62;99130.27;225838;1278;22529;-73
2023/09/29 21:26:14;;;;;;;16.80;12.80;;;;;;;15.49;70.82;99126.88;225684;1273;138841;-73
2023/09/29 21:31:21;;;;;;;16.50;13.00;;;;;;;15.40;71.29;99125.65;225660;1263;138726;-75
2023/09/29 21:36:23;;;;;;;15.30;12.90;;;;;;;15.31;71.63;99127.73;225652;1279;138901;-74
2023/09/29 21:41:25;;;;;;;17.40;13.30;;;;;;;15.23;71.66;99125.70;225598;1278;139907;-73
2023/09/29 21:46:33;;;;;;;17.60;12.60;;;;;;;15.14;71.78;99129.41;225654;1281;138894;-74
2023/09/29 21:51:38;;;;;;;15.70;12.60;;;;;;;15.09;72.22;99128.00;225759;1278;22690;-73
2023/09/29 21:56:41;;;;;;;17.50;12.80;;;;;;;15.05;72.48;99130.62;225521;1281;138481;-73
2023/09/29 22:01:43;;;;;;;16.70;13.30;;;;;;;15.00;72.82;99127.11;225659;1281;139983;-74
2023/09/29 22:06:45;;;;;;;18.10;13.10;;;;;;;14.92;72.66;99120.20;225660;1281;139585;-73
2023/09/29 22:11:47;;;;;;;20.80;13.30;;;;;;;14.84;72.94;99115.59;225626;1280;138959;-74
2023/09/29 22:16:49;;;;;;;16.80;13.20;;;;;;;14.76;73.25;99108.69;225698;1275;138744;-73
2023/09/29 22:21:54;;;;;;;17.90;13.10;;;;;;;14.70;73.37;99108.05;225688;1280;140122;-73
2023/09/29 22:26:56;;;;;;;17.70;12.60;;;;;;;14.67;73.59;99102.29;225777;1281;22578;-73
2023/09/29 22:31:59;;;;;;;17.50;13.00;;;;;;;14.66;73.81;99099.74;225622;1275;138590;-73
2023/09/29 22:37:01;;;;;;;19.60;15.50;;;;;;;14.68;74.02;99098.02;225705;1281;139351;-73
2023/09/29 22:42:03;;;;;;;20.80;15.70;;;;;;;14.71;74.04;99096.53;225704;1281;138717;-73
2023/09/29 22:47:05;;;;;;;16.90;13.50;;;;;;;14.75;74.41;99099.20;225657;1278;140139;-73
2023/09/29 22:52:07;;;;;;;14.80;11.70;;;;;;;14.78;74.17;99098.17;225721;1281;139144;-73
2023/09/29 22:57:09;;;;;;;16.80;12.10;;;;;;;14.78;74.38;99097.55;225828;1275;22561;-73